createdAt,value
2018-02-16T00:00:28.079Z,5.17
2018-02-16T00:01:08.539Z,5.29
2018-02-16T00:01:48.897Z,5.2
2018-02-16T00:02:29.304Z,5.15
2018-02-16T00:03:09.752Z,5.17
2018-02-16T00:03:50.144Z,5.22
2018-02-16T00:04:30.584Z,5.19
2018-02-16T00:05:10.929Z,5.14
2018-02-16T00:05:51.326Z,5.15
2018-02-16T00:06:31.756Z,5.12
2018-02-16T00:07:12.128Z,5.09
2018-02-16T00:07:52.506Z,5.08
2018-02-16T00:08:32.861Z,5.06
2018-02-16T00:09:13.340Z,5.02
2018-02-16T00:09:53.691Z,5.08
2018-02-16T00:10:34.092Z,5.06
2018-02-16T00:11:14.478Z,5.09
2018-02-16T00:11:54.836Z,5.08
2018-02-16T00:12:35.226Z,4.94
2018-02-16T00:13:15.662Z,4.9
2018-02-16T00:13:56.105Z,4.94
2018-02-16T00:14:36.462Z,4.88
2018-02-16T00:15:16.916Z,4.94
2018-02-16T00:15:57.358Z,4.9
2018-02-16T00:16:37.735Z,4.86
2018-02-16T00:17:18.210Z,4.83
2018-02-16T00:17:58.700Z,4.8
2018-02-16T00:18:39.189Z,4.79
2018-02-16T00:19:19.510Z,4.79
2018-02-16T00:20:00.009Z,4.75
2018-02-16T00:20:40.383Z,4.75
2018-02-16T00:21:20.824Z,4.77
2018-02-16T00:22:01.181Z,4.79
2018-02-16T00:22:41.568Z,4.83
2018-02-16T00:23:21.974Z,4.83
2018-02-16T00:24:02.363Z,4.77
2018-02-16T00:24:42.766Z,4.75
2018-02-16T00:25:23.158Z,4.74
2018-02-16T00:26:03.502Z,4.74
2018-02-16T00:26:43.977Z,4.72
2018-02-16T00:27:24.342Z,4.79
2018-02-16T00:28:04.819Z,4.75
2018-02-16T00:28:45.183Z,4.71
2018-02-16T00:29:25.557Z,4.72
2018-02-16T00:30:05.910Z,4.69
2018-02-16T00:30:46.324Z,4.71
2018-02-16T00:31:26.754Z,4.67
2018-02-16T00:32:07.211Z,4.67
2018-02-16T00:32:47.667Z,4.64
2018-02-16T00:33:28.094Z,4.61
2018-02-16T00:34:08.356Z,4.68
2018-02-16T00:34:48.955Z,4.62
2018-02-16T00:35:29.300Z,4.56
2018-02-16T00:36:09.748Z,4.51
2018-02-16T00:36:50.266Z,4.64
2018-02-16T00:37:30.661Z,4.64
2018-02-16T00:38:11.073Z,4.56
2018-02-16T00:38:51.434Z,4.61
2018-02-16T00:39:31.807Z,4.61
2018-02-16T00:40:12.185Z,4.51
2018-02-16T00:40:52.605Z,4.61
2018-02-16T00:41:32.920Z,4.61
2018-02-16T00:42:13.385Z,4.53
2018-02-16T00:42:53.769Z,4.51
2018-02-16T00:43:34.134Z,4.53
2018-02-16T00:44:14.491Z,4.53
2018-02-16T00:44:54.956Z,4.51
2018-02-16T00:45:35.301Z,4.54
2018-02-16T00:46:15.701Z,4.57
2018-02-16T00:46:56.129Z,4.56
2018-02-16T00:47:36.562Z,4.44
2018-02-16T00:48:16.929Z,4.51
2018-02-16T00:48:57.301Z,4.47
2018-02-16T00:49:37.718Z,4.46
2018-02-16T00:50:18.126Z,4.47
2018-02-16T00:50:58.520Z,4.49
2018-02-16T00:51:38.874Z,4.54
2018-02-16T00:52:19.819Z,4.47
2018-02-16T00:52:59.621Z,4.39
2018-02-16T00:53:40.114Z,4.46
2018-02-16T00:54:20.465Z,4.46
2018-02-16T00:55:00.793Z,4.42
2018-02-16T00:55:41.221Z,4.39
2018-02-16T00:56:21.572Z,4.38
2018-02-16T00:57:01.947Z,4.35
2018-02-16T00:57:42.422Z,4.34
2018-02-16T00:58:22.751Z,4.35
2018-02-16T00:59:03.174Z,4.34
2018-02-16T00:59:43.691Z,4.38
2018-02-16T01:00:23.951Z,4.29
2018-02-16T01:01:04.393Z,4.26
2018-02-16T01:01:44.836Z,4.32
2018-02-16T01:02:25.204Z,4.36
2018-02-16T01:03:05.628Z,4.31
2018-02-16T01:03:46.010Z,4.26
2018-02-16T01:04:26.351Z,4.25
2018-02-16T01:05:06.725Z,4.28
2018-02-16T01:05:47.209Z,4.18
2018-02-16T01:06:27.597Z,4.17
2018-02-16T01:07:08.008Z,4.17
2018-02-16T01:07:48.378Z,4.16
2018-02-16T01:08:28.713Z,4.17
2018-02-16T01:09:09.116Z,4.11
2018-02-16T01:09:49.510Z,4.16
2018-02-16T01:10:29.897Z,4.24
2018-02-16T01:11:10.309Z,4.13
2018-02-16T01:11:50.740Z,4.17
2018-02-16T01:12:31.148Z,4.26
2018-02-16T01:13:11.539Z,4.21
2018-02-16T01:13:51.953Z,4.25
2018-02-16T01:14:32.396Z,4.25
2018-02-16T01:15:12.739Z,4.31
2018-02-16T01:15:53.164Z,4.25
2018-02-16T01:16:33.478Z,4.32
2018-02-16T01:17:13.871Z,4.26
2018-02-16T01:17:54.344Z,4.28
2018-02-16T01:18:34.726Z,4.17
2018-02-16T01:19:15.049Z,4.25
2018-02-16T01:19:55.513Z,4.25
2018-02-16T01:20:35.901Z,4.26
2018-02-16T01:21:16.237Z,4.26
2018-02-16T01:21:56.753Z,4.18
2018-02-16T01:22:37.113Z,4.07
2018-02-16T01:23:17.556Z,4.04
2018-02-16T01:23:57.918Z,4
2018-02-16T01:24:38.292Z,3.84
2018-02-16T01:25:18.702Z,3.82
2018-02-16T01:25:59.113Z,3.8
2018-02-16T01:26:39.524Z,3.81
2018-02-16T01:27:19.922Z,3.81
2018-02-16T01:28:00.225Z,3.8
2018-02-16T01:28:40.666Z,3.81
2018-02-16T01:29:21.059Z,3.78
2018-02-16T01:30:01.461Z,3.8
2018-02-16T01:30:41.849Z,3.86
2018-02-16T01:31:22.253Z,3.88
2018-02-16T01:32:02.648Z,3.86
2018-02-16T01:32:43.059Z,3.89
2018-02-16T01:33:23.435Z,3.81
2018-02-16T01:34:03.755Z,3.92
2018-02-16T01:34:44.199Z,3.96
2018-02-16T01:35:24.610Z,3.92
2018-02-16T01:36:05.017Z,3.96
2018-02-16T01:36:45.367Z,3.95
2018-02-16T01:37:25.790Z,4.04
2018-02-16T01:38:06.282Z,3.92
2018-02-16T01:38:46.632Z,3.95
2018-02-16T01:39:27.056Z,3.92
2018-02-16T01:40:07.370Z,3.98
2018-02-16T01:40:47.799Z,3.99
2018-02-16T01:41:28.221Z,4.04
2018-02-16T01:42:08.640Z,4.04
2018-02-16T01:42:48.971Z,4
2018-02-16T01:43:29.420Z,4.06
2018-02-16T01:44:09.795Z,4.06
2018-02-16T01:44:50.152Z,4.06
2018-02-16T01:45:30.557Z,4.13
2018-02-16T01:46:10.944Z,4.16
2018-02-16T01:46:51.328Z,4.1
2018-02-16T01:47:31.696Z,4.14
2018-02-16T01:48:12.168Z,4.1
2018-02-16T01:48:52.527Z,4.1
2018-02-16T01:49:32.880Z,4.08
2018-02-16T01:50:13.324Z,4.1
2018-02-16T01:50:53.671Z,4.11
2018-02-16T01:51:34.109Z,4.16
2018-02-16T01:52:14.484Z,4.2
2018-02-16T01:52:54.866Z,4.17
2018-02-16T01:53:35.251Z,4.14
2018-02-16T01:54:15.688Z,4.21
2018-02-16T01:54:56.034Z,4.32
2018-02-16T01:55:36.484Z,4.24
2018-02-16T01:56:16.837Z,4.31
2018-02-16T01:56:57.238Z,4.26
2018-02-16T01:57:37.780Z,4.28
2018-02-16T01:58:18.156Z,4.29
2018-02-16T01:58:58.564Z,4.28
2018-02-16T01:59:38.985Z,4.31
2018-02-16T02:00:19.353Z,4.39
2018-02-16T02:00:59.805Z,4.32
2018-02-16T02:01:40.223Z,4.36
2018-02-16T02:02:20.629Z,4.46
2018-02-16T02:03:00.979Z,4.39
2018-02-16T02:03:41.385Z,4.43
2018-02-16T02:04:21.837Z,4.46
2018-02-16T02:05:02.346Z,4.5
2018-02-16T02:05:42.739Z,4.49
2018-02-16T02:06:23.115Z,4.51
2018-02-16T02:07:03.508Z,4.57
2018-02-16T02:07:43.880Z,4.59
2018-02-16T02:08:24.285Z,4.56
2018-02-16T02:09:04.705Z,4.51
2018-02-16T02:09:45.125Z,4.54
2018-02-16T02:10:25.502Z,4.44
2018-02-16T02:11:05.918Z,4.53
2018-02-16T02:11:46.353Z,4.51
2018-02-16T02:12:26.676Z,4.57
2018-02-16T02:13:07.123Z,4.5
2018-02-16T02:13:47.431Z,4.5
2018-02-16T02:14:27.886Z,4.5
2018-02-16T02:15:08.300Z,4.61
2018-02-16T02:15:48.686Z,4.62
2018-02-16T02:16:29.100Z,4.54
2018-02-16T02:17:09.522Z,4.62
2018-02-16T02:17:49.936Z,4.5
2018-02-16T02:18:30.474Z,4.62
2018-02-16T02:19:10.949Z,4.57
2018-02-16T02:19:51.302Z,4.61
2018-02-16T02:20:31.703Z,4.61
2018-02-16T02:21:12.066Z,4.61
2018-02-16T02:21:52.560Z,4.79
2018-02-16T02:22:32.938Z,4.68
2018-02-16T02:23:13.264Z,4.74
2018-02-16T02:23:53.747Z,4.74
2018-02-16T02:24:34.137Z,4.79
2018-02-16T02:25:14.583Z,4.77
2018-02-16T02:25:54.933Z,4.75
2018-02-16T02:26:35.363Z,4.79
2018-02-16T02:27:15.753Z,4.69
2018-02-16T02:27:56.209Z,4.67
2018-02-16T02:28:36.541Z,4.65
2018-02-16T02:29:16.964Z,4.61
2018-02-16T02:29:57.304Z,4.68
2018-02-16T02:30:37.784Z,4.59
2018-02-16T02:31:18.198Z,4.61
2018-02-16T02:31:58.564Z,4.62
2018-02-16T02:32:38.986Z,4.59
2018-02-16T02:33:19.348Z,4.56
2018-02-16T02:33:59.753Z,4.59
2018-02-16T02:34:40.125Z,4.56
2018-02-16T02:35:20.526Z,4.61
2018-02-16T02:36:00.903Z,4.53
2018-02-16T02:36:41.331Z,4.57
2018-02-16T02:37:21.687Z,4.51
2018-02-16T02:38:02.142Z,4.54
2018-02-16T02:38:42.524Z,4.5
2018-02-16T02:39:22.882Z,4.53
2018-02-16T02:40:03.241Z,4.67
2018-02-16T02:40:43.693Z,4.65
2018-02-16T02:41:24.058Z,4.65
2018-02-16T02:42:04.480Z,4.69
2018-02-16T02:42:44.898Z,4.64
2018-02-16T02:43:25.256Z,4.64
2018-02-16T02:44:05.619Z,4.69
2018-02-16T02:44:46.012Z,4.62
2018-02-16T02:45:26.408Z,4.67
2018-02-16T02:46:06.843Z,4.61
2018-02-16T02:46:47.206Z,4.62
2018-02-16T02:47:27.589Z,4.62
2018-02-16T02:48:08.029Z,4.61
2018-02-16T02:48:48.358Z,4.65
2018-02-16T02:49:28.797Z,4.65
2018-02-16T02:50:09.208Z,4.67
2018-02-16T02:50:49.573Z,4.62
2018-02-16T02:51:29.951Z,4.59
2018-02-16T02:52:10.362Z,4.64
2018-02-16T02:52:50.763Z,4.67
2018-02-16T02:53:31.166Z,4.68
2018-02-16T02:54:11.596Z,4.68
2018-02-16T02:54:51.961Z,4.64
2018-02-16T02:55:32.378Z,4.54
2018-02-16T02:56:12.896Z,4.57
2018-02-16T02:56:53.319Z,4.53
2018-02-16T02:57:33.670Z,4.44
2018-02-16T02:58:14.022Z,4.54
2018-02-16T02:58:54.404Z,4.61
2018-02-16T02:59:34.827Z,4.46
2018-02-16T03:00:15.217Z,4.42
2018-02-16T03:00:55.598Z,4.32
2018-02-16T03:01:36.028Z,4.36
2018-02-16T03:02:16.452Z,4.36
2018-02-16T03:02:56.864Z,4.43
2018-02-16T03:03:37.224Z,4.38
2018-02-16T03:04:17.578Z,4.43
2018-02-16T03:04:57.991Z,4.47
2018-02-16T03:05:38.393Z,4.42
2018-02-16T03:06:18.752Z,4.44
2018-02-16T03:06:59.262Z,4.53
2018-02-16T03:07:39.678Z,4.42
2018-02-16T03:08:20.111Z,4.5
2018-02-16T03:09:00.477Z,4.43
2018-02-16T03:09:40.852Z,4.44
2018-02-16T03:10:21.269Z,4.49
2018-02-16T03:11:01.755Z,4.49
2018-02-16T03:11:42.161Z,4.53
2018-02-16T03:12:22.506Z,4.39
2018-02-16T03:13:02.950Z,4.49
2018-02-16T03:13:43.293Z,4.5
2018-02-16T03:14:23.733Z,4.47
2018-02-16T03:15:04.147Z,4.53
2018-02-16T03:15:44.510Z,4.38
2018-02-16T03:16:24.888Z,4.34
2018-02-16T03:17:05.336Z,4.36
2018-02-16T03:17:45.722Z,4.35
2018-02-16T03:18:26.108Z,4.28
2018-02-16T03:19:06.557Z,4.28
2018-02-16T03:19:46.918Z,4.31
2018-02-16T03:20:27.305Z,4.25
2018-02-16T03:21:07.717Z,4.31
2018-02-16T03:21:48.134Z,4.31
2018-02-16T03:22:28.513Z,4.24
2018-02-16T03:23:08.908Z,4.29
2018-02-16T03:23:49.287Z,4.28
2018-02-16T03:24:29.694Z,4.36
2018-02-16T03:25:10.108Z,4.35
2018-02-16T03:25:50.430Z,4.34
2018-02-16T03:26:30.870Z,4.21
2018-02-16T03:27:11.273Z,4.18
2018-02-16T03:27:51.650Z,4.28
2018-02-16T03:28:32.103Z,4.14
2018-02-16T03:29:13.344Z,4.17
2018-02-16T03:29:52.962Z,4.06
2018-02-16T03:30:33.469Z,3.99
2018-02-16T03:31:13.796Z,3.95
2018-02-16T03:31:54.179Z,3.92
2018-02-16T03:32:34.615Z,3.99
2018-02-16T03:33:14.968Z,3.92
2018-02-16T03:33:55.310Z,3.99
2018-02-16T03:34:35.777Z,3.92
2018-02-16T03:35:16.229Z,3.92
2018-02-16T03:35:56.637Z,3.96
2018-02-16T03:36:37.026Z,3.93
2018-02-16T03:37:17.476Z,3.93
2018-02-16T03:37:57.932Z,3.95
2018-02-16T03:38:38.354Z,3.9
2018-02-16T03:39:18.737Z,3.9
2018-02-16T03:39:59.132Z,3.98
2018-02-16T03:40:39.517Z,3.95
2018-02-16T03:41:19.905Z,3.92
2018-02-16T03:42:00.376Z,3.95
2018-02-16T03:42:40.726Z,3.96
2018-02-16T03:43:21.067Z,3.98
2018-02-16T03:44:01.517Z,3.95
2018-02-16T03:44:41.894Z,3.92
2018-02-16T03:45:22.307Z,3.98
2018-02-16T03:46:02.650Z,3.95
2018-02-16T03:46:43.031Z,3.93
2018-02-16T03:47:23.471Z,3.81
2018-02-16T03:48:03.799Z,3.98
2018-02-16T03:48:44.248Z,3.86
2018-02-16T03:49:24.665Z,3.95
2018-02-16T03:50:05.048Z,3.9
2018-02-16T03:50:45.400Z,4
2018-02-16T03:51:25.815Z,3.95
2018-02-16T03:52:06.298Z,3.92
2018-02-16T03:52:46.645Z,3.96
2018-02-16T03:53:27.064Z,3.9
2018-02-16T03:54:07.489Z,3.92
2018-02-16T03:54:47.837Z,3.98
2018-02-16T03:55:28.189Z,4.06
2018-02-16T03:56:08.594Z,4.13
2018-02-16T03:56:48.997Z,4.2
2018-02-16T03:57:29.355Z,4.25
2018-02-16T03:58:09.814Z,4.29
2018-02-16T03:58:50.212Z,4.34
2018-02-16T03:59:30.611Z,4.36
2018-02-16T04:00:10.968Z,4.36
2018-02-16T04:00:51.412Z,4.36
2018-02-16T04:01:31.926Z,4.42
2018-02-16T04:02:12.261Z,4.42
2018-02-16T04:02:52.708Z,4.38
2018-02-16T04:03:33.071Z,4.44
2018-02-16T04:43:41.267Z,3.8
2018-02-16T04:44:33.690Z,3.77
2018-02-16T04:45:26.335Z,3.7
2018-02-16T04:46:18.875Z,3.77
2018-02-16T04:48:12.573Z,3.74
2018-02-16T04:49:04.699Z,3.64
2018-02-16T04:51:13.111Z,3.6
2018-02-16T04:52:05.242Z,3.7
2018-02-16T04:52:55.648Z,3.64
2018-02-16T04:53:35.912Z,3.67
2018-02-16T04:54:16.280Z,3.62
2018-02-16T04:54:56.759Z,3.67
2018-02-16T04:55:37.136Z,3.63
2018-02-16T04:56:17.981Z,3.74
2018-02-16T04:56:58.323Z,3.8
2018-02-16T04:57:38.755Z,3.82
2018-02-16T04:58:19.150Z,3.78
2018-02-16T04:58:59.526Z,3.96
2018-02-16T04:59:39.855Z,3.95
2018-02-16T05:00:20.266Z,4.1
2018-02-16T05:01:00.689Z,4.06
2018-02-16T05:01:41.103Z,4.16
2018-02-16T05:02:21.437Z,4.29
2018-02-16T05:03:01.834Z,4.26
2018-02-16T05:03:42.231Z,4.39
2018-02-16T05:04:22.635Z,4.43
2018-02-16T05:05:03.081Z,4.46
2018-02-16T05:05:43.474Z,4.61
2018-02-16T05:06:23.777Z,4.53
2018-02-16T05:07:04.269Z,4.53
2018-02-16T05:07:44.704Z,4.53
2018-02-16T05:08:25.060Z,4.61
2018-02-16T05:09:05.485Z,4.64
2018-02-16T05:09:45.794Z,4.75
2018-02-16T05:10:26.264Z,4.83
2018-02-16T05:11:06.731Z,4.9
2018-02-16T05:11:47.188Z,4.94
2018-02-16T05:12:27.546Z,5.09
2018-02-16T05:13:07.936Z,5.01
2018-02-16T05:13:48.327Z,5.12
2018-02-16T05:14:28.719Z,5.24
2018-02-16T05:15:09.209Z,5.23
2018-02-16T05:15:49.626Z,5.27
2018-02-16T05:16:30.001Z,5.33
2018-02-16T05:17:10.381Z,5.35
2018-02-16T05:17:50.808Z,5.42
2018-02-16T05:18:31.236Z,5.44
2018-02-16T05:19:11.567Z,5.48
2018-02-16T05:19:52.026Z,5.51
2018-02-16T05:20:32.367Z,5.49
2018-02-16T05:21:12.832Z,5.55
2018-02-16T05:21:53.219Z,5.6
2018-02-16T05:22:33.654Z,5.62
2018-02-16T05:23:13.942Z,5.63
2018-02-16T05:23:54.392Z,5.7
2018-02-16T05:24:34.807Z,5.69
2018-02-16T05:25:15.217Z,5.73
2018-02-16T05:25:55.565Z,5.7
2018-02-16T05:26:35.937Z,5.78
2018-02-16T05:27:16.552Z,5.85
2018-02-16T05:27:56.880Z,5.93
2018-02-16T05:28:37.245Z,5.96
2018-02-16T05:29:17.658Z,5.96
2018-02-16T05:29:58.206Z,5.92
2018-02-16T05:30:38.574Z,6.02
2018-02-16T05:31:18.978Z,6.02
2018-02-16T05:31:59.371Z,5.88
2018-02-16T05:32:39.820Z,6.01
2018-02-16T05:33:20.243Z,5.98
2018-02-16T05:34:00.571Z,5.87
2018-02-16T05:34:41.014Z,5.87
2018-02-16T05:35:21.434Z,5.83
2018-02-16T05:36:01.811Z,5.87
2018-02-16T05:36:42.253Z,5.83
2018-02-16T05:37:22.598Z,5.81
2018-02-16T05:38:03.040Z,5.84
2018-02-16T05:38:43.964Z,5.77
2018-02-16T05:39:24.342Z,5.74
2018-02-16T05:40:04.803Z,5.78
2018-02-16T05:40:45.223Z,5.81
2018-02-16T05:41:25.572Z,5.69
2018-02-16T05:42:05.930Z,5.78
2018-02-16T05:42:46.376Z,5.77
2018-02-16T05:43:26.785Z,5.78
2018-02-16T05:44:07.167Z,5.78
2018-02-16T05:44:47.531Z,5.75
2018-02-16T05:45:27.967Z,5.78
2018-02-16T05:46:08.354Z,5.75
2018-02-16T05:46:48.761Z,5.77
2018-02-16T05:47:29.208Z,5.88
2018-02-16T05:48:09.614Z,5.83
2018-02-16T05:48:50.032Z,5.88
2018-02-16T05:49:30.411Z,5.84
2018-02-16T05:50:10.755Z,5.87
2018-02-16T05:50:51.163Z,5.9
2018-02-16T05:51:31.579Z,5.87
2018-02-16T05:52:11.942Z,5.93
2018-02-16T05:52:52.474Z,5.98
2018-02-16T05:53:32.896Z,5.93
2018-02-16T05:54:13.554Z,5.9
2018-02-16T05:54:53.882Z,5.92
2018-02-16T05:55:34.355Z,5.88
2018-02-16T05:56:14.696Z,5.88
2018-02-16T05:56:55.084Z,5.95
2018-02-16T05:57:35.432Z,6.01
2018-02-16T05:58:15.871Z,6.01
2018-02-16T05:58:56.310Z,5.99
2018-02-16T05:59:36.751Z,6.11
2018-02-16T06:00:17.100Z,6.14
2018-02-16T06:00:57.624Z,6.11
2018-02-16T06:01:38.186Z,6.06
2018-02-16T06:02:18.616Z,6.05
2018-02-16T06:02:58.992Z,6.01
2018-02-16T06:03:39.350Z,5.96
2018-02-16T06:04:19.729Z,5.95
2018-02-16T06:05:00.227Z,5.85
2018-02-16T06:05:40.616Z,5.83
2018-02-16T06:06:21.086Z,5.77
2018-02-16T06:07:01.480Z,5.73
2018-02-16T06:07:42.011Z,5.69
2018-02-16T06:08:22.743Z,5.67
2018-02-16T06:09:03.196Z,5.74
2018-02-16T06:09:43.863Z,5.62
2018-02-16T06:10:24.138Z,5.59
2018-02-16T06:11:05.852Z,5.6
2018-02-16T06:11:46.932Z,5.48
2018-02-16T06:12:28.989Z,5.49
2018-02-16T06:13:08.747Z,5.51
2018-02-16T06:13:49.660Z,5.47
2018-02-16T06:14:33.954Z,5.42
2018-02-16T06:15:14.559Z,5.42
2018-02-16T06:15:54.904Z,5.38
2018-02-16T06:16:35.332Z,5.41
2018-02-16T06:17:15.915Z,5.4
2018-02-16T06:17:56.377Z,5.4
2018-02-16T06:18:36.744Z,5.45
2018-02-16T06:19:17.301Z,5.48
2018-02-16T06:19:58.505Z,5.51
2018-02-16T06:20:38.837Z,5.52
2018-02-16T06:21:19.452Z,5.59
2018-02-16T06:22:00.065Z,5.63
2018-02-16T06:22:40.699Z,5.62
2018-02-16T06:23:21.062Z,5.63
2018-02-16T06:24:01.450Z,5.67
2018-02-16T06:24:43.035Z,5.65
2018-02-16T06:25:24.272Z,5.69
2018-02-16T06:26:04.749Z,5.7
2018-02-16T06:26:45.050Z,5.66
2018-02-16T06:27:25.517Z,5.67
2018-02-16T06:28:05.946Z,5.58
2018-02-16T06:28:46.475Z,5.59
2018-02-16T06:29:26.924Z,5.62
2018-02-16T06:31:49.954Z,5.47
2018-02-16T06:32:44.804Z,5.42
2018-02-16T06:33:39.603Z,5.41
2018-02-16T06:34:34.406Z,5.32
2018-02-16T06:35:33.076Z,5.35
2018-02-16T06:36:31.104Z,5.4
2018-02-16T06:37:29.797Z,5.35
2018-02-16T06:38:23.549Z,5.3
2018-02-16T06:39:23.519Z,5.27
2018-02-16T06:40:21.551Z,5.32
2018-02-16T06:41:19.526Z,5.37
2018-02-16T06:42:16.944Z,5.27
2018-02-16T06:43:15.731Z,5.4
2018-02-16T06:44:08.360Z,5.35
2018-02-16T06:45:05.302Z,5.42
2018-02-16T06:46:07.827Z,5.38
2018-02-16T06:47:11.604Z,5.42
2018-02-16T06:48:07.754Z,5.44
2018-02-16T06:49:00.697Z,5.33
2018-02-16T06:49:56.287Z,5.48
2018-02-16T06:50:50.318Z,5.45
2018-02-16T06:51:42.519Z,5.51
2018-02-16T06:52:23.147Z,5.6
2018-02-16T06:53:03.727Z,5.67
2018-02-16T06:53:44.221Z,5.55
2018-02-16T06:54:24.682Z,5.56
2018-02-16T06:55:05.200Z,5.59
2018-02-16T06:55:45.714Z,5.6
2018-02-16T06:56:26.011Z,5.67
2018-02-16T06:57:06.820Z,5.7
2018-02-16T06:57:47.476Z,5.69
2018-02-16T06:58:28.093Z,5.7
2018-02-16T06:59:08.643Z,5.69
2018-02-16T06:59:49.290Z,5.73
2018-02-16T07:00:29.814Z,5.7
2018-02-16T07:01:10.241Z,5.77
2018-02-16T07:01:50.970Z,5.75
2018-02-16T07:02:31.332Z,5.8
2018-02-16T07:03:12.589Z,5.88
2018-02-16T07:03:53.186Z,5.9
2018-02-16T07:04:34.170Z,6.01
2018-02-16T07:05:14.927Z,6.05
2018-02-16T07:05:55.523Z,6.11
2018-02-16T07:06:36.204Z,6.13
2018-02-16T07:07:16.850Z,6.24
2018-02-16T07:07:57.627Z,6.19
2018-02-16T07:08:38.459Z,6.21
2018-02-16T07:09:18.886Z,6.32
2018-02-16T07:09:59.284Z,6.4
2018-02-16T07:10:39.811Z,6.45
2018-02-16T07:11:20.136Z,6.5
2018-02-16T07:12:01.566Z,6.53
2018-02-16T07:12:41.408Z,6.55
2018-02-16T07:13:22.042Z,6.64
2018-02-16T07:14:02.568Z,6.69
2018-02-16T07:14:57.958Z,6.63
2018-02-16T07:17:54.676Z,6.83
2018-02-16T07:19:54.930Z,6.87
2018-02-16T07:24:09.103Z,7.47
2018-02-16T07:27:12.854Z,7.74
2018-02-16T07:29:10.446Z,7.92
2018-02-16T07:30:08.195Z,8.04
2018-02-16T07:31:08.518Z,8.1
2018-02-16T07:33:15.600Z,8.37
2018-02-16T07:34:12.986Z,8.32
2018-02-16T07:35:08.316Z,8.47
2018-02-16T07:36:15.296Z,8.55
2018-02-16T07:37:14.720Z,8.55
2018-02-16T07:38:12.803Z,8.67
2018-02-16T07:39:06.608Z,8.71
2018-02-16T07:40:02.598Z,8.75
2018-02-16T07:40:55.185Z,8.93
2018-02-16T07:41:49.534Z,9.1
2018-02-16T07:42:49.530Z,9.15
2018-02-16T07:43:43.553Z,9.24
2018-02-16T07:44:45.338Z,9.38
2018-02-16T07:45:45.523Z,9.48
2018-02-16T07:46:38.784Z,9.52
2018-02-16T07:47:34.384Z,9.58
2018-02-16T07:48:40.914Z,9.65
2018-02-16T07:49:56.997Z,9.74
2018-02-16T07:50:51.994Z,9.96
2018-02-16T07:51:47.138Z,10.07
2018-02-16T07:52:45.020Z,10.22
2018-02-16T07:53:43.369Z,10.25
2018-02-16T07:54:44.683Z,10.36
2018-02-16T08:00:44.882Z,11.11
2018-02-16T08:10:59.200Z,12.08
2018-02-16T08:11:53.331Z,12.15
2018-02-16T08:12:47.480Z,12.4
2018-02-16T08:13:41.677Z,12.55
2018-02-16T08:14:47.570Z,12.63
2018-02-16T08:15:40.865Z,12.63
2018-02-16T08:16:43.245Z,12.94
2018-02-16T08:18:47.465Z,13.39
2018-02-16T08:19:46.631Z,13.48
2018-02-16T08:20:40.007Z,13.61
2018-02-16T08:21:45.126Z,13.63
2018-02-16T08:22:44.349Z,13.88
2018-02-16T08:23:40.802Z,13.84
2018-02-16T08:24:36.478Z,13.57
2018-02-16T08:25:31.855Z,13.68
2018-02-16T08:26:27.422Z,13.57
2018-02-16T08:28:48.133Z,13.35
2018-02-16T08:37:28.408Z,11.82
2018-02-16T08:39:30.780Z,12.16
2018-02-16T08:40:26.233Z,12.26
2018-02-16T08:41:22.539Z,12.46
2018-02-16T08:42:15.679Z,12.7
2018-02-16T08:47:59.124Z,14.16
2018-02-16T08:49:07.039Z,14.38
2018-02-16T08:50:20.950Z,14.6
2018-02-16T08:52:35.533Z,14.9
2018-02-16T09:01:49.652Z,15.85
2018-02-16T09:02:33.621Z,15.66
2018-02-16T09:03:15.048Z,15.76
2018-02-16T09:03:55.970Z,15.85
2018-02-16T09:04:36.920Z,15.92
2018-02-16T09:05:17.770Z,15.91
2018-02-16T09:05:58.256Z,16.11
2018-02-16T09:06:39.588Z,16.14
2018-02-16T09:07:22.905Z,16.36
2018-02-16T09:08:03.584Z,16.52
2018-02-16T09:08:44.656Z,16.54
2018-02-16T09:09:25.206Z,16.51
2018-02-16T09:10:05.055Z,16.55
2018-02-16T09:10:46.243Z,16.51
2018-02-16T09:11:26.603Z,16.51
2018-02-16T09:12:07.248Z,16.3
2018-02-16T09:12:50.702Z,16.47
2018-02-16T09:13:33.353Z,16.45
2018-02-16T09:14:13.901Z,16.55
2018-02-16T09:14:55.364Z,16.42
2018-02-16T09:15:35.779Z,16.57
2018-02-16T09:16:16.521Z,16.55
2018-02-16T09:16:57.863Z,16.51
2018-02-16T09:17:39.105Z,16.29
2018-02-16T09:18:19.833Z,16.08
2018-02-16T09:19:00.646Z,15.96
2018-02-16T09:19:41.319Z,15.96
2018-02-16T09:20:22.797Z,16.03
2018-02-16T09:21:02.832Z,16.1
2018-02-16T09:21:43.741Z,16.08
2018-02-16T09:22:24.416Z,16.23
2018-02-16T09:23:04.999Z,16.29
2018-02-16T09:23:45.476Z,16.34
2018-02-16T09:24:26.177Z,16.5
2018-02-16T09:25:06.719Z,16.59
2018-02-16T09:25:49.373Z,16.51
2018-02-16T09:26:29.656Z,16.6
2018-02-16T09:27:09.704Z,16.7
2018-02-16T09:27:50.578Z,16.78
2018-02-16T09:28:31.419Z,16.69
2018-02-16T09:29:12.260Z,16.59
2018-02-16T09:29:52.463Z,16.69
2018-02-16T09:30:33.113Z,16.77
2018-02-16T09:31:13.540Z,16.59
2018-02-16T09:31:54.350Z,16.77
2018-02-16T09:32:36.606Z,16.88
2018-02-16T09:33:18.302Z,16.9
2018-02-16T09:33:58.619Z,17
2018-02-16T09:34:39.667Z,17.14
2018-02-16T09:35:20.176Z,17.14
2018-02-16T09:36:01.063Z,17.15
2018-02-16T09:36:42.381Z,17.2
2018-02-16T09:37:27.246Z,17.25
2018-02-16T09:38:08.217Z,17.22
2018-02-16T09:38:49.284Z,17.09
2018-02-16T09:39:30.693Z,17.1
2018-02-16T09:40:12.640Z,17.17
2018-02-16T09:40:56.364Z,17.14
2018-02-16T09:41:40.613Z,17.14
2018-02-16T09:42:20.977Z,17.17
2018-02-16T09:43:01.427Z,17.17
2018-02-16T09:43:43.102Z,17.15
2018-02-16T09:44:23.308Z,17.28
2018-02-16T09:45:04.346Z,17.33
2018-02-16T09:45:44.363Z,17.38
2018-02-16T09:46:26.916Z,17.3
2018-02-16T09:47:08.218Z,17.39
2018-02-16T09:47:48.553Z,17.39
2018-02-16T09:48:29.291Z,17.32
2018-02-16T09:49:09.816Z,17.27
2018-02-16T09:49:54.062Z,17.27
2018-02-16T09:50:34.396Z,17.14
2018-02-16T09:51:15.054Z,17.1
2018-02-16T09:51:55.503Z,17.12
2018-02-16T09:52:35.918Z,17.12
2018-02-16T09:53:16.487Z,17.03
2018-02-16T09:53:57.883Z,17
2018-02-16T09:54:38.406Z,17.05
2018-02-16T09:55:18.711Z,17.09
2018-02-16T09:56:00.509Z,17.06
2018-02-16T09:56:41.394Z,17.17
2018-02-16T09:57:21.899Z,17.27
2018-02-16T09:58:03.170Z,17.38
2018-02-16T09:58:43.427Z,17.47
2018-02-16T09:59:24.270Z,17.45
2018-02-16T10:00:04.641Z,17.54
2018-02-16T10:00:45.101Z,17.45
2018-02-16T10:01:25.705Z,17.51
2018-02-16T10:02:06.653Z,17.54
2018-02-16T10:02:48.296Z,17.53
2018-02-16T10:03:28.786Z,17.63
2018-02-16T10:04:12.311Z,17.57
2018-02-16T10:04:53.089Z,17.57
2018-02-16T10:05:33.605Z,17.77
2018-02-16T10:45:19.359Z,17.8
2018-02-16T10:47:49.029Z,18.1
2018-02-16T10:48:29.862Z,18.07
2018-02-16T10:49:10.799Z,17.95
2018-02-16T10:49:52.571Z,17.87
2018-02-16T10:50:33.270Z,17.83
2018-02-16T10:51:14.115Z,17.94
2018-02-16T10:53:12.482Z,17.91
2018-02-16T10:53:57.952Z,17.94
2018-02-16T10:54:38.818Z,17.68
2018-02-16T10:55:20.567Z,17.36
2018-02-16T10:56:02.579Z,17.27
2018-02-16T10:56:44.360Z,17.24
2018-02-16T10:57:25.261Z,17.15
2018-02-16T10:58:08.172Z,17.03
2018-02-16T10:58:49.602Z,16.92
2018-02-16T10:59:30.055Z,16.85
2018-02-16T11:00:11.448Z,16.67
2018-02-16T11:00:51.825Z,16.57
2018-02-16T11:01:34.477Z,16.36
2018-02-16T11:02:15.875Z,16.18
2018-02-16T11:02:55.656Z,16.03
2018-02-16T11:03:36.208Z,15.99
2018-02-16T11:04:16.884Z,16.08
2018-02-16T11:04:57.501Z,16.06
2018-02-16T11:05:38.146Z,16.06
2018-02-16T11:06:18.633Z,16.07
2018-02-16T11:07:00.055Z,16.1
2018-02-16T11:07:40.457Z,16.18
2018-02-16T11:08:21.027Z,16.29
2018-02-16T11:09:03.768Z,16.29
2018-02-16T11:09:44.263Z,16.32
2018-02-16T11:10:24.606Z,16.33
2018-02-16T11:11:05.906Z,16.45
2018-02-16T11:11:46.535Z,16.48
2018-02-16T11:12:27.428Z,16.6
2018-02-16T11:13:09.053Z,16.67
2018-02-16T11:13:49.572Z,16.7
2018-02-16T11:14:30.312Z,16.85
2018-02-16T11:15:10.867Z,16.92
2018-02-16T11:15:52.867Z,17.07
2018-02-16T11:16:33.345Z,17.12
2018-02-16T11:17:13.891Z,17.18
2018-02-16T11:17:54.997Z,17.25
2018-02-16T11:18:35.999Z,17.35
2018-02-16T11:19:16.994Z,17.42
2018-02-16T11:19:57.819Z,17.42
2018-02-16T11:20:38.102Z,17.7
2018-02-16T11:21:18.556Z,17.57
2018-02-16T11:21:58.992Z,17.65
2018-02-16T11:22:40.381Z,17.7
2018-02-16T11:23:20.698Z,17.66
2018-02-16T11:24:01.234Z,17.68
2018-02-16T11:24:41.646Z,17.73
2018-02-16T11:25:23.248Z,17.8
2018-02-16T11:26:03.595Z,17.86
2018-02-16T11:26:44.196Z,17.83
2018-02-16T11:27:25.131Z,17.84
2018-02-16T11:28:06.467Z,17.79
2018-02-16T11:28:49.204Z,17.71
2018-02-16T11:29:29.927Z,17.71
2018-02-16T11:30:10.302Z,17.76
2018-02-16T11:30:51.248Z,17.71
2018-02-16T11:31:31.740Z,17.74
2018-02-16T11:32:12.026Z,17.86
2018-02-16T11:32:52.457Z,18.01
2018-02-16T11:33:32.864Z,18.09
2018-02-16T11:34:13.218Z,18.05
2018-02-16T11:34:53.868Z,18.07
2018-02-16T11:35:35.254Z,18.2
2018-02-16T11:36:15.672Z,18.13
2018-02-16T11:36:56.509Z,18.02
2018-02-16T11:37:37.272Z,17.99
2018-02-16T11:38:17.818Z,18.04